createdAt,value
2022-12-19T00:01:27.635Z,-7.90
2022-12-19T00:03:57.583Z,-7.87
2022-12-19T00:06:25.036Z,-7.86
2022-12-19T00:08:52.363Z,-7.93
2022-12-19T00:11:20.175Z,-7.84
2022-12-19T00:13:47.342Z,-7.87
2022-12-19T00:16:17.644Z,-7.92
2022-12-19T00:18:46.373Z,-7.95
2022-12-19T00:21:17.345Z,-7.90
2022-12-19T00:23:44.248Z,-7.98
2022-12-19T00:26:18.962Z,-7.95
2022-12-19T00:28:47.644Z,-8.03
2022-12-19T00:31:15.828Z,-8.00
2022-12-19T00:33:43.598Z,-8.04
2022-12-19T00:36:22.925Z,-8.00
2022-12-19T00:38:51.370Z,-8.22
2022-12-19T00:41:28.963Z,-8.00
2022-12-19T00:43:59.525Z,-8.01
2022-12-19T00:46:26.627Z,-8.13
2022-12-19T00:48:55.986Z,-8.08
2022-12-19T00:51:24.285Z,-8.06
2022-12-19T00:53:51.303Z,-8.06
2022-12-19T00:56:20.903Z,-8.18
2022-12-19T00:58:47.902Z,-8.09
2022-12-19T01:01:19.802Z,-8.08
2022-12-19T01:04:18.585Z,-8.18
2022-12-19T01:06:33.603Z,-8.12
2022-12-19T01:09:01.103Z,-8.19
2022-12-19T01:11:46.545Z,-8.12
2022-12-19T01:14:19.066Z,-8.14
2022-12-19T01:16:47.871Z,-8.14
2022-12-19T01:19:14.766Z,-8.15
2022-12-19T01:21:41.884Z,-8.17
2022-12-19T01:24:09.704Z,-8.24
2022-12-19T01:26:36.467Z,-8.22
2022-12-19T01:29:03.247Z,-8.22
2022-12-19T01:31:30.019Z,-8.36
2022-12-19T01:33:56.790Z,-8.37
2022-12-19T01:36:23.563Z,-8.20
2022-12-19T01:38:50.545Z,-8.13
2022-12-19T01:41:17.325Z,-8.16
2022-12-19T01:44:04.383Z,-8.01
2022-12-19T01:46:33.772Z,-7.95
2022-12-19T01:49:00.867Z,-7.99
2022-12-19T01:51:35.772Z,-7.86
2022-12-19T01:54:04.631Z,-7.78
2022-12-19T01:56:40.573Z,-7.77
2022-12-19T01:59:10.498Z,-7.79
2022-12-19T02:01:45.820Z,-7.70
2022-12-19T02:04:18.873Z,-7.77
2022-12-19T02:06:45.672Z,-7.68
2022-12-19T02:09:12.493Z,-7.60
2022-12-19T02:11:39.295Z,-7.60
2022-12-19T02:14:06.140Z,-7.56
2022-12-19T02:16:46.934Z,-7.83
2022-12-19T02:19:46.095Z,-7.55
2022-12-19T02:22:36.838Z,-7.54
2022-12-19T02:25:14.461Z,-7.71
2022-12-19T02:28:05.884Z,-7.54
2022-12-19T02:31:17.863Z,-7.54
2022-12-19T02:34:08.916Z,-7.54
2022-12-19T02:36:41.954Z,-7.59
2022-12-19T02:39:36.712Z,-7.53
2022-12-19T02:42:03.851Z,-7.64
2022-12-19T02:44:39.212Z,-7.57
2022-12-19T02:47:06.473Z,-7.54
2022-12-19T02:49:34.679Z,-7.53
2022-12-19T02:52:19.945Z,-7.49
2022-12-19T02:54:56.517Z,-7.55
2022-12-19T02:57:30.255Z,-7.49
2022-12-19T03:00:09.201Z,-7.43
2022-12-19T03:03:00.568Z,-7.46
2022-12-19T03:05:32.474Z,-7.51
2022-12-19T03:08:09.145Z,-7.47
2022-12-19T03:10:49.984Z,-7.51
2022-12-19T03:13:55.529Z,-7.48
2022-12-19T03:16:22.330Z,-7.56
2022-12-19T03:18:49.087Z,-7.55
2022-12-19T03:21:18.267Z,-7.54
2022-12-19T03:23:45.250Z,-7.64
2022-12-19T03:26:17.169Z,-7.63
2022-12-19T03:29:07.917Z,-7.73
2022-12-19T03:31:34.789Z,-7.74
2022-12-19T03:34:22.749Z,-7.78
2022-12-19T03:36:52.571Z,-7.85
2022-12-19T03:39:19.397Z,-7.86
2022-12-19T03:42:04.522Z,-7.84
2022-12-19T03:44:33.734Z,-7.96
2022-12-19T03:47:17.896Z,-7.85
2022-12-19T03:49:45.477Z,-7.85
2022-12-19T03:52:36.952Z,-8.02
2022-12-19T03:55:04.042Z,-7.86
2022-12-19T03:57:39.098Z,-7.85
2022-12-19T04:00:14.102Z,-7.87
2022-12-19T04:02:43.234Z,-8.00
2022-12-19T04:05:12.303Z,-7.88
2022-12-19T04:07:39.220Z,-7.87
2022-12-19T04:10:07.917Z,-7.87
2022-12-19T04:12:37.578Z,-7.93
2022-12-19T04:15:05.107Z,-8.20
2022-12-19T04:17:44.520Z,-8.05
2022-12-19T04:20:12.239Z,-8.01
2022-12-19T04:22:40.720Z,-8.02
2022-12-19T04:25:10.438Z,-8.04
2022-12-19T04:27:38.240Z,-8.14
2022-12-19T04:30:08.600Z,-8.03
2022-12-19T04:32:35.925Z,-8.12
2022-12-19T04:35:03.020Z,-8.00
2022-12-19T04:37:29.900Z,-8.01
2022-12-19T04:39:56.682Z,-8.01
2022-12-19T04:42:23.501Z,-8.03
2022-12-19T04:44:50.255Z,-8.01
2022-12-19T04:47:17.085Z,-8.25
2022-12-19T04:49:43.878Z,-8.02
2022-12-19T04:52:10.658Z,-7.97
2022-12-19T04:54:38.196Z,-7.98
2022-12-19T04:57:04.983Z,-7.94
2022-12-19T04:59:31.764Z,-7.95
2022-12-19T05:01:58.765Z,-8.01
2022-12-19T05:04:26.558Z,-7.88
2022-12-19T05:06:53.960Z,-7.96
2022-12-19T05:09:20.760Z,-7.94
2022-12-19T05:11:47.578Z,-7.88
2022-12-19T05:14:15.722Z,-7.81
2022-12-19T05:16:42.565Z,-7.81
2022-12-19T05:19:09.358Z,-7.90
2022-12-19T05:21:36.142Z,-7.79
2022-12-19T05:24:03.135Z,-7.78
2022-12-19T05:26:29.904Z,-7.80
2022-12-19T05:28:56.697Z,-7.81
2022-12-19T05:31:23.499Z,-7.81
2022-12-19T05:33:50.327Z,-7.93
2022-12-19T05:36:17.737Z,-7.78
2022-12-19T05:38:44.571Z,-7.80
2022-12-19T05:41:16.194Z,-7.78
2022-12-19T05:43:43.981Z,-7.81
2022-12-19T05:46:10.933Z,-7.82
2022-12-19T05:48:37.864Z,-7.87
2022-12-19T05:51:04.961Z,-7.82
2022-12-19T05:53:31.772Z,-7.76
2022-12-19T05:56:09.014Z,-7.74
2022-12-19T05:58:36.097Z,-7.81
2022-12-19T06:01:04.598Z,-7.76
2022-12-19T06:03:31.480Z,-7.81
2022-12-19T06:05:58.331Z,-7.74
2022-12-19T06:08:25.276Z,-7.75
2022-12-19T06:10:52.374Z,-7.70
2022-12-19T06:13:24.808Z,-7.72
2022-12-19T06:15:57.604Z,-7.76
2022-12-19T06:18:24.672Z,-7.84
2022-12-19T06:21:05.831Z,-7.79
2022-12-19T06:23:33.893Z,-7.67
2022-12-19T06:26:01.036Z,-7.77
2022-12-19T06:28:28.176Z,-7.85
2022-12-19T06:30:58.636Z,-7.70
2022-12-19T06:33:26.688Z,-7.73
2022-12-19T06:36:00.798Z,-7.67
2022-12-19T06:38:28.088Z,-7.67
2022-12-19T06:41:13.546Z,-7.70
2022-12-19T06:43:40.508Z,-7.87
2022-12-19T06:46:07.415Z,-7.61
2022-12-19T06:48:34.348Z,-7.74
2022-12-19T06:51:01.198Z,-7.59
2022-12-19T06:53:28.105Z,-7.59
2022-12-19T06:55:56.386Z,-7.53
2022-12-19T06:58:24.444Z,-7.52
2022-12-19T07:00:51.777Z,-7.56
2022-12-19T07:03:23.203Z,-7.60
2022-12-19T07:05:50.004Z,-7.65
2022-12-19T07:08:16.938Z,-7.58
2022-12-19T07:10:43.758Z,-7.48
2022-12-19T07:13:10.545Z,-7.42
2022-12-19T07:15:37.930Z,-7.71
2022-12-19T07:18:05.190Z,-7.39
2022-12-19T07:20:32.104Z,-7.32
2022-12-19T07:22:58.868Z,-7.33
2022-12-19T07:25:25.624Z,-7.51
2022-12-19T07:27:52.447Z,-7.23
2022-12-19T07:30:19.395Z,-7.13
2022-12-19T07:32:46.187Z,-7.08
2022-12-19T07:35:12.992Z,-7.02
2022-12-19T07:37:40.333Z,-6.94
2022-12-19T07:40:07.724Z,-6.99
2022-12-19T07:42:35.267Z,-6.86
2022-12-19T07:45:02.079Z,-6.85
2022-12-19T07:47:28.862Z,-6.75
2022-12-19T07:49:55.645Z,-6.70
2022-12-19T07:52:22.436Z,-6.63
2022-12-19T07:54:49.205Z,-6.57
2022-12-19T07:57:16.144Z,-6.55
2022-12-19T07:59:42.911Z,-6.47
2022-12-19T08:02:10.247Z,-6.45
2022-12-19T08:04:37.337Z,-6.40
2022-12-19T08:07:04.484Z,-6.29
2022-12-19T08:09:31.345Z,-6.29
2022-12-19T08:11:58.943Z,-6.17
2022-12-19T08:14:25.836Z,-6.13
2022-12-19T08:17:20.916Z,-6.06
2022-12-19T08:19:39.370Z,-5.98
2022-12-19T08:22:06.155Z,-5.99
2022-12-19T08:24:33.328Z,-5.82
2022-12-19T08:27:00.098Z,-5.74
2022-12-19T08:29:26.865Z,-5.78
2022-12-19T08:31:53.653Z,-5.60
2022-12-19T08:34:20.441Z,-5.53
2022-12-19T08:36:47.305Z,-5.53
2022-12-19T08:39:14.214Z,-5.42
2022-12-19T08:41:40.996Z,-5.32
2022-12-19T08:44:10.878Z,-5.25
2022-12-19T08:46:37.856Z,-5.21
2022-12-19T08:49:04.825Z,-5.22
2022-12-19T08:51:31.644Z,-5.09
2022-12-19T08:53:59.090Z,-4.94
2022-12-19T08:56:25.928Z,-4.98
2022-12-19T08:58:52.728Z,-4.81
2022-12-19T09:01:20.447Z,-4.76
2022-12-19T09:05:21.464Z,-4.72
2022-12-19T09:06:34.923Z,-4.57
2022-12-19T09:09:02.645Z,-4.57
2022-12-19T09:11:29.467Z,-4.46
2022-12-19T09:13:56.887Z,-4.49
2022-12-19T09:16:24.934Z,-4.38
2022-12-19T09:18:53.121Z,-4.40
2022-12-19T09:21:22.967Z,-4.29
2022-12-19T09:23:54.111Z,-4.29
2022-12-19T09:26:21.898Z,-4.20
2022-12-19T09:28:50.030Z,-4.18
2022-12-19T09:31:19.423Z,-4.16
2022-12-19T09:33:46.825Z,-4.19
2022-12-19T09:36:15.630Z,-4.08
2022-12-19T09:38:42.550Z,-4.04
2022-12-19T09:41:29.176Z,-4.02
2022-12-19T09:44:33.510Z,-4.00
2022-12-19T09:47:26.849Z,-4.01
2022-12-19T09:49:54.544Z,-4.06
2022-12-19T09:52:33.141Z,-3.99
2022-12-19T09:55:24.772Z,-3.97
2022-12-19T09:57:55.947Z,-3.98
2022-12-19T10:00:22.871Z,-3.98
2022-12-19T10:03:10.215Z,-3.96
2022-12-19T10:06:33.632Z,-3.94
2022-12-19T10:08:33.302Z,-3.93
2022-12-19T10:12:40.989Z,-3.92
2022-12-19T10:14:21.250Z,-3.89
2022-12-19T10:20:13.128Z,-3.82
2022-12-19T10:22:50.823Z,-3.78
2022-12-19T10:25:26.748Z,-3.69
2022-12-19T10:28:00.562Z,-3.65
2022-12-19T10:30:31.696Z,-3.62
2022-12-19T10:33:21.250Z,-3.42
2022-12-19T10:35:52.030Z,-3.45
2022-12-19T10:38:45.326Z,-3.25
2022-12-19T10:41:23.232Z,-3.15
2022-12-19T10:44:02.609Z,-3.09
2022-12-19T10:46:49.538Z,-3.08
2022-12-19T10:49:23.692Z,-3.08
2022-12-19T10:51:56.607Z,-3.04
2022-12-19T10:54:33.085Z,-3.08
2022-12-19T10:57:23.107Z,-2.99
2022-12-19T11:00:04.251Z,-2.98
2022-12-19T11:02:40.339Z,-2.95
2022-12-19T11:05:46.247Z,-3.02
2022-12-19T11:08:24.302Z,-2.99
2022-12-19T11:12:39.650Z,-3.04
2022-12-19T11:20:06.049Z,-2.88
2022-12-19T11:21:36.372Z,-2.86
2022-12-19T11:29:31.090Z,-2.84
2022-12-19T11:29:41.965Z,-2.99
2022-12-19T11:30:36.288Z,-2.73
2022-12-19T11:30:38.739Z,-2.91
2022-12-19T11:34:06.832Z,-2.65
2022-12-19T11:36:50.021Z,-2.62
2022-12-19T11:39:32.977Z,-2.57
2022-12-19T11:42:12.431Z,-2.53
2022-12-19T11:45:12.481Z,-2.52
2022-12-19T11:48:16.798Z,-2.51
2022-12-19T11:51:06.043Z,-2.50
2022-12-19T11:54:05.081Z,-2.54
2022-12-19T11:56:31.906Z,-2.66
2022-12-19T11:59:04.977Z,-2.51
2022-12-19T12:01:58.570Z,-2.49
2022-12-19T12:04:46.967Z,-2.49
2022-12-19T12:08:48.596Z,-2.46
2022-12-19T12:12:47.465Z,-2.47
2022-12-19T12:20:21.907Z,-2.61
2022-12-19T12:30:53.673Z,-2.55
2022-12-19T12:31:07.592Z,-2.57
2022-12-19T12:31:23.832Z,-2.58
2022-12-19T12:31:46.588Z,-2.67
2022-12-19T12:31:47.726Z,-2.62
2022-12-19T12:35:47.068Z,-2.71
2022-12-19T12:37:08.259Z,-2.72
2022-12-19T12:38:25.129Z,-2.87
2022-12-19T12:41:15.044Z,-2.75
2022-12-19T12:44:08.973Z,-2.77
2022-12-19T12:46:40.185Z,-2.79
2022-12-19T12:49:33.125Z,-2.83
2022-12-19T12:52:00.098Z,-2.86
2022-12-19T12:54:31.339Z,-2.88
2022-12-19T12:56:58.414Z,-2.90
2022-12-19T12:59:29.496Z,-2.86
2022-12-19T13:01:59.875Z,-2.81
2022-12-19T13:04:28.555Z,-2.84
2022-12-19T13:07:27.928Z,-2.83
2022-12-19T13:10:25.556Z,-2.95
2022-12-19T13:13:21.140Z,-2.88
2022-12-19T13:15:51.106Z,-2.90
2022-12-19T13:18:39.392Z,-2.90
2022-12-19T13:21:07.608Z,-2.95
2022-12-19T13:23:37.060Z,-2.89
2022-12-19T13:26:04.480Z,-2.88
2022-12-19T13:28:31.243Z,-2.88
2022-12-19T13:31:19.174Z,-2.90
2022-12-19T13:34:14.865Z,-2.91
2022-12-19T13:39:51.352Z,-2.92
2022-12-19T13:40:12.263Z,-2.91
2022-12-19T13:43:10.816Z,-2.92
2022-12-19T13:45:38.755Z,-2.92
2022-12-19T13:48:13.034Z,-3.02
2022-12-19T13:50:40.433Z,-3.08
2022-12-19T13:53:18.371Z,-2.95
2022-12-19T13:55:45.212Z,-2.95
2022-12-19T13:58:32.803Z,-2.95
2022-12-19T14:01:20.742Z,-3.05
2022-12-19T14:03:48.530Z,-3.01
2022-12-19T14:06:26.393Z,-2.99
2022-12-19T14:08:59.319Z,-3.01
2022-12-19T14:13:45.125Z,-3.05
2022-12-19T14:14:49.313Z,-3.05
2022-12-19T14:17:36.011Z,-3.29
2022-12-19T14:20:37.225Z,-3.11
2022-12-19T14:22:49.563Z,-3.26
2022-12-19T14:28:20.206Z,-3.21
2022-12-19T14:28:21.750Z,-3.14
2022-12-19T14:31:04.555Z,-3.19
2022-12-19T14:33:44.256Z,-3.23
2022-12-19T14:36:21.366Z,-3.37
2022-12-19T14:39:25.059Z,-3.18
2022-12-19T14:42:02.616Z,-3.24
2022-12-19T14:52:02.646Z,-3.18
2022-12-19T14:54:11.823Z,-3.16
2022-12-19T14:54:22.084Z,-3.23
2022-12-19T14:54:40.195Z,-3.20
2022-12-19T14:59:02.049Z,-3.46
2022-12-19T15:01:33.853Z,-3.20
2022-12-19T15:04:53.510Z,-3.16
2022-12-19T15:07:11.830Z,-3.27
2022-12-19T15:11:02.798Z,-3.14
2022-12-19T15:14:53.853Z,-3.13
2022-12-19T15:15:50.877Z,-3.27
2022-12-19T15:18:24.705Z,-3.10
2022-12-19T15:20:52.318Z,-3.18
2022-12-19T15:23:22.329Z,-3.11
2022-12-19T15:26:06.953Z,-3.17
2022-12-19T15:28:49.957Z,-3.07
2022-12-19T15:31:24.601Z,-3.06
2022-12-19T15:36:38.311Z,-3.05
2022-12-19T15:39:05.558Z,-3.03
2022-12-19T15:41:32.565Z,-3.07
2022-12-19T15:44:04.533Z,-3.07
2022-12-19T15:46:31.956Z,-3.03
2022-12-19T15:48:58.865Z,-3.09
2022-12-19T15:51:25.692Z,-2.97
2022-12-19T15:53:52.473Z,-3.01
2022-12-19T15:56:29.738Z,-2.95
2022-12-19T15:58:57.464Z,-3.00
2022-12-19T16:01:24.413Z,-3.05
2022-12-19T16:03:51.568Z,-3.01
2022-12-19T16:06:18.703Z,-3.01
2022-12-19T16:08:45.660Z,-2.92
2022-12-19T16:11:30.226Z,-2.91
2022-12-19T16:13:57.403Z,-2.93
2022-12-19T16:16:25.385Z,-2.90
2022-12-19T16:18:52.278Z,-2.82
2022-12-19T16:21:31.495Z,-2.82
2022-12-19T16:24:00.582Z,-2.90
2022-12-19T16:26:33.164Z,-2.84
2022-12-19T16:29:00.114Z,-2.78
2022-12-19T16:31:27.358Z,-2.75
2022-12-19T16:33:54.377Z,-2.77
2022-12-19T16:36:21.345Z,-2.77
2022-12-19T16:38:48.285Z,-2.75
2022-12-19T16:41:17.894Z,-2.88
2022-12-19T16:43:44.797Z,-2.78
2022-12-19T16:46:18.413Z,-2.76
2022-12-19T16:48:45.371Z,-3.07
2022-12-19T16:51:22.274Z,-2.70
2022-12-19T16:53:50.801Z,-2.77
2022-12-19T16:56:40.701Z,-2.64
2022-12-19T16:59:29.225Z,-2.65
2022-12-19T17:01:56.211Z,-2.62
2022-12-19T17:04:24.772Z,-2.72
2022-12-19T17:06:52.256Z,-2.69
2022-12-19T17:09:23.437Z,-2.64
2022-12-19T17:11:56.235Z,-2.62
2022-12-19T17:14:27.904Z,-2.61
2022-12-19T17:16:55.475Z,-2.59
2022-12-19T17:19:26.724Z,-2.59
2022-12-19T17:21:53.524Z,-2.60
2022-12-19T17:24:20.327Z,-2.58
2022-12-19T17:26:47.317Z,-2.59
2022-12-19T17:29:14.189Z,-2.67
2022-12-19T17:31:41.285Z,-2.69
2022-12-19T17:34:28.538Z,-2.54
2022-12-19T17:36:55.343Z,-2.55
2022-12-19T17:39:24.083Z,-2.64
2022-12-19T17:41:51.111Z,-2.58
2022-12-19T17:44:18.039Z,-2.55
2022-12-19T17:46:45.402Z,-2.52
2022-12-19T17:49:30.611Z,-2.73
2022-12-19T17:51:57.654Z,-2.52
2022-12-19T17:54:25.380Z,-2.48
2022-12-19T17:56:52.424Z,-2.45
2022-12-19T17:59:20.148Z,-2.44
2022-12-19T18:01:47.619Z,-2.50
2022-12-19T18:04:16.431Z,-2.42
2022-12-19T18:06:43.346Z,-2.73
2022-12-19T18:09:20.254Z,-2.42
2022-12-19T18:11:47.970Z,-2.50
2022-12-19T18:14:14.994Z,-2.41
2022-12-19T18:16:41.941Z,-2.37
2022-12-19T18:19:19.702Z,-2.40
2022-12-19T18:21:46.634Z,-2.31
2022-12-19T18:24:14.835Z,-2.31
2022-12-19T18:26:42.251Z,-2.33
2022-12-19T18:29:09.061Z,-2.57
2022-12-19T18:31:39.937Z,-2.30
2022-12-19T18:34:24.170Z,-2.27
2022-12-19T18:36:51.436Z,-2.38
2022-12-19T18:39:26.026Z,-2.22
2022-12-19T18:41:53.021Z,-2.23
2022-12-19T18:44:20.066Z,-2.21
2022-12-19T18:46:48.833Z,-2.55
2022-12-19T18:49:16.924Z,-2.23
2022-12-19T18:51:44.919Z,-2.20
2022-12-19T18:54:19.433Z,-2.20
2022-12-19T18:56:46.352Z,-2.21
2022-12-19T18:59:13.345Z,-2.22
2022-12-19T19:01:42.718Z,-2.20
2022-12-19T19:04:12.252Z,-2.16
2022-12-19T19:06:42.166Z,-2.16
2022-12-19T19:09:16.344Z,-2.16
2022-12-19T19:11:43.142Z,-2.17
2022-12-19T19:14:10.042Z,-2.14
2022-12-19T19:16:37.158Z,-2.13
2022-12-19T19:19:04.813Z,-2.12
2022-12-19T19:21:33.300Z,-2.19
2022-12-19T19:24:08.841Z,-2.17
2022-12-19T19:26:35.666Z,-2.28
2022-12-19T19:29:03.109Z,-2.12
2022-12-19T19:31:30.691Z,-2.20
2022-12-19T19:34:03.930Z,-2.16
2022-12-19T19:36:31.484Z,-2.17
2022-12-19T19:38:58.350Z,-2.09
2022-12-19T19:41:29.827Z,-2.09
2022-12-19T19:43:57.575Z,-2.19
2022-12-19T19:46:24.479Z,-2.11
2022-12-19T19:48:51.523Z,-2.11
2022-12-19T19:51:18.366Z,-2.20
2022-12-19T19:53:45.201Z,-2.29
2022-12-19T19:56:11.973Z,-2.12
2022-12-19T19:58:38.804Z,-2.16
2022-12-19T20:01:12.979Z,-2.09
2022-12-19T20:03:40.493Z,-2.19
2022-12-19T20:06:07.787Z,-2.11
2022-12-19T20:08:39.549Z,-2.12
2022-12-19T20:11:07.283Z,-2.16
2022-12-19T20:13:34.232Z,-2.20
2022-12-19T20:16:06.644Z,-2.08
2022-12-19T20:18:33.867Z,-2.08
2022-12-19T20:21:00.719Z,-2.07
2022-12-19T20:23:27.592Z,-2.05
2022-12-19T20:25:54.353Z,-2.03
2022-12-19T20:28:21.222Z,-2.07
2022-12-19T20:30:48.040Z,-2.04
2022-12-19T20:33:14.892Z,-1.99
2022-12-19T20:35:42.673Z,-1.98
2022-12-19T20:38:09.503Z,-1.97
2022-12-19T20:40:36.273Z,-1.98
2022-12-19T20:43:03.078Z,-2.04
2022-12-19T20:45:29.902Z,-1.93
2022-12-19T20:47:56.902Z,-1.90
2022-12-19T20:50:23.781Z,-1.95
2022-12-19T20:52:50.757Z,-2.10
2022-12-19T20:55:17.605Z,-1.86
2022-12-19T20:57:44.511Z,-1.86
2022-12-19T21:00:13.118Z,-1.90
2022-12-19T21:03:24.894Z,-1.81
2022-12-19T21:05:26.759Z,-1.79
2022-12-19T21:07:53.581Z,-1.77
2022-12-19T21:10:20.804Z,-1.80
2022-12-19T21:12:48.219Z,-1.83
2022-12-19T21:15:15.658Z,-1.71
2022-12-19T21:17:42.471Z,-1.69
2022-12-19T21:20:09.862Z,-1.78
2022-12-19T21:22:36.754Z,-1.71
2022-12-19T21:25:04.411Z,-1.69
2022-12-19T21:27:31.187Z,-1.63
2022-12-19T21:29:58.103Z,-1.76
2022-12-19T21:32:25.112Z,-1.60
2022-12-19T21:34:54.997Z,-1.56
2022-12-19T21:37:24.308Z,-1.59
2022-12-19T21:39:51.169Z,-1.88
2022-12-19T21:42:17.993Z,-1.48
2022-12-19T21:44:44.814Z,-1.62
2022-12-19T21:47:11.731Z,-1.39
2022-12-19T21:49:38.604Z,-1.39
2022-12-19T21:52:05.554Z,-1.28
2022-12-19T21:54:32.411Z,-1.22
2022-12-19T21:56:59.253Z,-1.27
2022-12-19T21:59:26.225Z,-1.11
2022-12-19T22:01:53.176Z,-1.08
2022-12-19T22:04:22.352Z,-1.11
2022-12-19T22:06:50.226Z,-0.98
2022-12-19T22:09:19.493Z,-0.91
2022-12-19T22:11:46.462Z,-0.93
2022-12-19T22:14:13.685Z,-0.88
2022-12-19T22:16:40.482Z,-0.78
2022-12-19T22:19:07.389Z,-0.77
2022-12-19T22:21:34.217Z,-0.74
2022-12-19T22:24:01.815Z,-0.80
2022-12-19T22:26:31.856Z,-0.93
2022-12-19T22:28:59.017Z,-0.73
2022-12-19T22:31:27.626Z,-0.64
2022-12-19T22:33:56.155Z,-0.83
2022-12-19T22:36:28.074Z,-0.64
2022-12-19T22:38:55.838Z,-0.72
2022-12-19T22:41:22.876Z,-0.96
2022-12-19T22:43:49.752Z,-0.71
2022-12-19T22:46:26.602Z,-0.97
2022-12-19T22:48:53.788Z,-0.69
2022-12-19T22:51:20.868Z,-0.79
2022-12-19T22:53:47.858Z,-0.88
2022-12-19T22:56:16.722Z,-0.81
2022-12-19T22:58:45.404Z,-0.74
2022-12-19T23:01:24.211Z,-0.73
2022-12-19T23:03:52.493Z,-0.51
2022-12-19T23:06:19.842Z,-0.79
2022-12-19T23:08:49.872Z,-0.67
2022-12-19T23:11:21.453Z,-0.72
2022-12-19T23:13:48.802Z,-0.53
2022-12-19T23:16:16.295Z,-0.47
2022-12-19T23:18:43.264Z,-0.42
2022-12-19T23:21:15.128Z,-0.41
2022-12-19T23:23:45.745Z,-0.75
2022-12-19T23:26:24.986Z,-0.39
2022-12-19T23:28:57.119Z,-0.62
2022-12-19T23:31:24.233Z,-0.84
2022-12-19T23:33:51.525Z,-0.62
2022-12-19T23:36:38.039Z,-0.65
2022-12-19T23:39:05.564Z,-0.64
2022-12-19T23:41:32.578Z,-0.45
2022-12-19T23:43:59.760Z,-0.76
2022-12-19T23:46:27.000Z,-0.51
2022-12-19T23:48:54.209Z,-0.60
2022-12-19T23:51:22.901Z,-0.47
2022-12-19T23:53:49.989Z,-0.33
2022-12-19T23:56:23.011Z,-0.57
2022-12-19T23:58:54.847Z,-0.69
